createdAt,value
2022-10-26T00:01:22.761Z,95.55
2022-10-26T00:06:30.186Z,95.58
2022-10-26T00:11:37.037Z,95.61
2022-10-26T00:16:44.106Z,95.62
2022-10-26T00:21:51.192Z,95.78
2022-10-26T00:26:58.092Z,95.81
2022-10-26T00:32:05.028Z,95.92
2022-10-26T00:37:11.876Z,95.98
2022-10-26T00:42:22.209Z,95.99
2022-10-26T00:47:34.697Z,96.03
2022-10-26T00:52:42.329Z,96.13
2022-10-26T00:57:51.036Z,96.14
2022-10-26T01:03:00.005Z,96.14
2022-10-26T01:08:08.603Z,96.06
2022-10-26T01:13:17.260Z,96.15
2022-10-26T01:18:31.284Z,96.08
2022-10-26T01:23:54.279Z,96.03
2022-10-26T01:29:39.260Z,96.12
2022-10-26T01:34:49.166Z,96.14
2022-10-26T01:40:01.277Z,96.23
2022-10-26T01:45:11.610Z,96.20
2022-10-26T01:50:20.940Z,96.19
2022-10-26T01:55:57.330Z,96.15
2022-10-26T02:01:17.007Z,96.18
2022-10-26T02:06:36.332Z,96.21
2022-10-26T02:11:47.767Z,96.27
2022-10-26T02:16:59.337Z,96.37
2022-10-26T02:22:14.654Z,96.32
2022-10-26T02:27:25.937Z,96.35
2022-10-26T02:32:36.943Z,96.31
2022-10-26T02:37:45.790Z,96.39
2022-10-26T02:42:55.195Z,96.45
2022-10-26T02:48:02.145Z,96.45
2022-10-26T02:53:19.244Z,96.50
2022-10-26T02:58:31.113Z,96.43
2022-10-26T03:03:38.104Z,96.47
2022-10-26T03:08:45.547Z,96.47
2022-10-26T03:13:52.476Z,96.51
2022-10-26T03:18:59.391Z,96.49
2022-10-26T03:24:06.873Z,96.52
2022-10-26T03:29:13.880Z,96.54
2022-10-26T03:34:20.916Z,96.58
2022-10-26T03:39:27.835Z,96.54
2022-10-26T03:44:34.756Z,96.57
2022-10-26T03:49:41.630Z,96.55
2022-10-26T03:54:48.697Z,96.58
2022-10-26T03:59:55.665Z,96.65
2022-10-26T04:05:02.595Z,96.64
2022-10-26T04:10:11.541Z,96.65
2022-10-26T04:15:19.370Z,96.76
2022-10-26T04:20:27.341Z,96.72
2022-10-26T04:25:35.047Z,96.69
2022-10-26T04:30:42.663Z,96.75
2022-10-26T04:35:49.739Z,96.74
2022-10-26T04:40:56.726Z,96.78
2022-10-26T04:46:03.651Z,96.81
2022-10-26T04:51:10.672Z,96.74
2022-10-26T04:56:17.657Z,96.78
2022-10-26T05:01:24.951Z,96.83
2022-10-26T05:06:32.081Z,96.85
2022-10-26T05:11:39.319Z,96.85
2022-10-26T05:16:46.533Z,96.89
2022-10-26T05:21:53.902Z,96.89
2022-10-26T05:27:00.856Z,96.87
2022-10-26T05:32:07.965Z,96.94
2022-10-26T05:37:14.887Z,96.94
2022-10-26T05:42:21.937Z,96.92
2022-10-26T05:47:28.862Z,96.98
2022-10-26T05:52:41.592Z,97.03
2022-10-26T05:57:49.844Z,97.06
2022-10-26T06:03:26.741Z,97.02
2022-10-26T06:08:34.592Z,97.06
2022-10-26T06:13:42.648Z,97.12
2022-10-26T06:19:01.017Z,97.20
2022-10-26T06:24:14.126Z,97.27
2022-10-26T06:29:29.910Z,97.25
2022-10-26T06:34:38.924Z,97.21
2022-10-26T06:39:53.913Z,97.25
2022-10-26T06:45:02.805Z,97.33
2022-10-26T06:50:20.703Z,97.39
2022-10-26T06:55:28.817Z,97.31
2022-10-26T07:00:36.774Z,97.38
2022-10-26T07:05:44.149Z,97.40
2022-10-26T07:10:51.262Z,97.44
2022-10-26T07:15:58.264Z,97.50
2022-10-26T07:21:05.256Z,97.56
2022-10-26T07:26:12.275Z,97.60
2022-10-26T07:31:19.251Z,97.65
2022-10-26T07:36:26.399Z,97.68
2022-10-26T07:41:33.669Z,97.66
2022-10-26T07:46:40.575Z,97.77
2022-10-26T07:51:47.630Z,97.80
2022-10-26T07:56:54.787Z,97.83
2022-10-26T08:02:01.846Z,97.80
2022-10-26T08:07:08.938Z,97.70
2022-10-26T08:12:16.847Z,97.79
2022-10-26T08:17:23.849Z,97.80
2022-10-26T08:22:31.742Z,97.80
2022-10-26T08:27:38.683Z,97.85
2022-10-26T08:32:45.912Z,97.84
2022-10-26T08:37:54.874Z,97.86
2022-10-26T08:43:06.658Z,97.84
2022-10-26T08:48:21.337Z,97.76
2022-10-26T08:53:31.915Z,97.79
2022-10-26T08:58:42.804Z,97.74
2022-10-26T09:03:49.951Z,97.75
2022-10-26T09:09:07.112Z,97.83
2022-10-26T09:14:19.667Z,97.77
2022-10-26T09:19:53.535Z,97.66
2022-10-26T09:25:11.771Z,97.68
2022-10-26T09:30:21.903Z,97.68
2022-10-26T09:35:32.631Z,97.59
2022-10-26T09:40:49.315Z,97.35
2022-10-26T09:45:56.830Z,97.35
2022-10-26T09:51:04.886Z,97.14
2022-10-26T09:56:14.614Z,97.04
2022-10-26T10:01:36.831Z,96.62
2022-10-26T10:06:48.175Z,96.23
2022-10-26T10:11:58.068Z,95.99
2022-10-26T10:17:08.289Z,95.70
2022-10-26T10:22:23.168Z,95.41
2022-10-26T10:27:31.060Z,94.99
2022-10-26T10:32:39.284Z,94.68
2022-10-26T10:37:48.384Z,94.41
2022-10-26T10:43:06.147Z,94.11
2022-10-26T10:48:20.754Z,94.01
2022-10-26T10:53:33.378Z,93.87
2022-10-26T10:58:51.130Z,93.50
2022-10-26T11:09:26.855Z,92.63
2022-10-26T11:14:38.792Z,91.11
2022-10-26T11:19:50.012Z,90.80
2022-10-26T11:25:03.943Z,91.34
2022-10-26T11:30:20.022Z,90.96
2022-10-26T11:35:31.438Z,90.47
2022-10-26T11:40:46.504Z,88.64
2022-10-26T11:46:04.878Z,88.40
2022-10-26T11:51:19.706Z,88.78
2022-10-26T11:56:35.777Z,88.41
2022-10-26T12:01:43.386Z,87.22
2022-10-26T12:06:52.985Z,85.26
2022-10-26T12:12:06.425Z,82.00
2022-10-26T12:17:19.180Z,82.33
2022-10-26T12:22:32.411Z,82.14
2022-10-26T12:27:54.683Z,81.27
2022-10-26T12:33:04.007Z,79.97
2022-10-26T12:38:48.879Z,78.86
2022-10-26T12:44:06.152Z,78.65
2022-10-26T12:49:57.202Z,76.68
2022-10-26T12:55:29.889Z,77.24
2022-10-26T13:00:41.693Z,77.94
2022-10-26T13:06:09.893Z,75.96
2022-10-26T13:11:20.784Z,76.53
2022-10-26T13:16:30.440Z,76.50
2022-10-26T13:21:50.172Z,75.65
2022-10-26T13:27:31.857Z,72.36
2022-10-26T13:32:41.029Z,75.36
2022-10-26T13:37:51.676Z,76.37
2022-10-26T13:43:03.387Z,74.45
2022-10-26T13:48:18.189Z,74.16
2022-10-26T13:53:35.444Z,75.13
2022-10-26T13:58:47.413Z,75.08
2022-10-26T14:03:54.669Z,75.17
2022-10-26T14:09:05.819Z,75.09
2022-10-26T14:14:18.882Z,74.82
2022-10-26T14:19:29.683Z,75.66
2022-10-26T14:24:48.265Z,76.00
2022-10-26T14:35:27.320Z,74.36
2022-10-26T14:40:37.444Z,73.55
2022-10-26T14:45:51.367Z,75.06
2022-10-26T14:51:09.491Z,75.32
2022-10-26T14:56:32.388Z,76.31
2022-10-26T15:01:51.007Z,77.81
2022-10-26T15:07:08.961Z,78.39
2022-10-26T15:12:26.849Z,78.90
2022-10-26T15:17:41.989Z,78.44
2022-10-26T15:22:56.180Z,78.38
2022-10-26T15:28:22.058Z,79.12
2022-10-26T15:33:29.630Z,80.25
2022-10-26T15:38:37.197Z,80.97
2022-10-26T15:43:45.008Z,81.72
2022-10-26T15:48:58.342Z,82.23
2022-10-26T15:54:07.442Z,82.99
2022-10-26T15:59:20.715Z,83.63
2022-10-26T16:04:27.959Z,84.43
2022-10-26T16:09:35.425Z,85.04
2022-10-26T16:15:03.846Z,86.02
2022-10-26T16:20:17.271Z,86.26
2022-10-26T16:25:26.747Z,86.48
2022-10-26T16:30:34.128Z,86.87
2022-10-26T16:35:42.164Z,87.23
2022-10-26T16:40:49.703Z,87.47
2022-10-26T16:45:57.286Z,88.03
2022-10-26T16:51:10.333Z,88.30
2022-10-26T16:56:19.501Z,88.64
2022-10-26T17:01:27.238Z,88.79
2022-10-26T17:06:34.385Z,89.13
2022-10-26T17:11:41.478Z,89.43
2022-10-26T17:16:48.698Z,89.63
2022-10-26T17:21:55.900Z,89.84
2022-10-26T17:27:03.279Z,90.01
2022-10-26T17:32:10.333Z,90.26
2022-10-26T17:37:17.998Z,90.40
2022-10-26T17:42:25.437Z,90.44
2022-10-26T17:47:32.771Z,90.68
2022-10-26T17:52:40.101Z,91.06
2022-10-26T17:57:47.205Z,91.39
2022-10-26T18:02:54.334Z,91.33
2022-10-26T18:08:01.354Z,91.59
2022-10-26T18:13:08.418Z,91.71
2022-10-26T18:18:15.615Z,91.74
2022-10-26T18:23:22.521Z,92.09
2022-10-26T18:28:29.614Z,92.13
2022-10-26T18:33:37.333Z,92.31
2022-10-26T18:38:45.159Z,92.34
2022-10-26T18:43:54.175Z,92.63
2022-10-26T18:49:02.312Z,92.48
2022-10-26T18:54:09.331Z,92.69
2022-10-26T18:59:16.441Z,92.85
2022-10-26T19:04:23.413Z,92.87
2022-10-26T19:09:30.553Z,93.13
2022-10-26T19:14:37.516Z,93.17
2022-10-26T19:19:44.606Z,93.36
2022-10-26T19:24:51.546Z,93.32
2022-10-26T19:29:59.208Z,93.36
2022-10-26T19:35:07.806Z,93.59
2022-10-26T19:40:16.637Z,93.66
2022-10-26T19:45:23.598Z,93.59
2022-10-26T19:50:30.613Z,93.76
2022-10-26T19:55:37.776Z,93.63
2022-10-26T20:00:44.979Z,93.83
2022-10-26T20:05:52.822Z,93.82
2022-10-26T20:11:00.273Z,93.75
2022-10-26T20:16:09.000Z,94.10
2022-10-26T20:21:16.524Z,94.06
2022-10-26T20:26:27.472Z,94.11
2022-10-26T20:31:35.508Z,94.17
2022-10-26T20:36:42.465Z,94.16
2022-10-26T20:41:50.637Z,94.24
2022-10-26T20:46:58.680Z,94.25
2022-10-26T20:52:26.017Z,94.31
2022-10-26T20:57:36.424Z,94.28
2022-10-26T21:02:43.664Z,94.33
2022-10-26T21:07:50.704Z,94.34
2022-10-26T21:12:57.648Z,94.47
2022-10-26T21:18:04.950Z,94.48
2022-10-26T21:23:11.983Z,94.46
2022-10-26T21:28:19.092Z,94.57
2022-10-26T21:33:32.267Z,94.57
2022-10-26T21:38:39.797Z,94.64
2022-10-26T21:43:49.107Z,94.69
2022-10-26T21:48:56.481Z,94.73
2022-10-26T21:54:03.626Z,94.74
2022-10-26T21:59:10.980Z,94.84
2022-10-26T22:04:18.218Z,94.72
2022-10-26T22:09:25.181Z,94.84
2022-10-26T22:14:32.206Z,94.89
2022-10-26T22:19:39.184Z,95.02
2022-10-26T22:24:46.221Z,94.97
2022-10-26T22:29:53.355Z,95.08
2022-10-26T22:35:11.000Z,95.17
2022-10-26T22:40:27.483Z,95.19
2022-10-26T22:45:34.953Z,95.19
2022-10-26T22:50:41.934Z,95.27
2022-10-26T22:55:49.271Z,95.28
2022-10-26T23:01:02.065Z,95.27
2022-10-26T23:06:12.786Z,95.36
2022-10-26T23:11:22.338Z,95.42
2022-10-26T23:16:30.687Z,95.46
2022-10-26T23:21:37.642Z,95.39
2022-10-26T23:26:44.678Z,95.46
2022-10-26T23:31:51.571Z,95.53
2022-10-26T23:36:58.581Z,95.56
2022-10-26T23:42:05.775Z,95.55
2022-10-26T23:47:13.504Z,95.60
2022-10-26T23:52:20.593Z,95.49
2022-10-26T23:57:27.541Z,95.59
